sensor_id;sensor_type;location;lat;lon;timestamp;pressure;altitude;pressure_sealevel;temperature;humidity
51147;BME280;37207;53.060;18.726;2023-04-20T00:01:08;101199.92;;;8.49;89.82
51147;BME280;37207;53.060;18.726;2023-04-20T00:03:36;101198.39;;;8.50;89.99
51147;BME280;37207;53.060;18.726;2023-04-20T00:06:03;101200.36;;;8.50;89.86
51147;BME280;37207;53.060;18.726;2023-04-20T00:08:30;101202.10;;;8.50;89.83
51147;BME280;37207;53.060;18.726;2023-04-20T00:10:57;101200.42;;;8.50;89.86
51147;BME280;37207;53.060;18.726;2023-04-20T00:13:24;101198.10;;;8.51;89.91
51147;BME280;37207;53.060;18.726;2023-04-20T00:15:51;101196.90;;;8.52;89.92
51147;BME280;37207;53.060;18.726;2023-04-20T00:18:17;101195.08;;;8.53;89.88
51147;BME280;37207;53.060;18.726;2023-04-20T00:20:44;101198.04;;;8.53;89.95
51147;BME280;37207;53.060;18.726;2023-04-20T00:23:11;101193.52;;;8.54;89.84
51147;BME280;37207;53.060;18.726;2023-04-20T00:25:37;101199.66;;;8.54;89.86
51147;BME280;37207;53.060;18.726;2023-04-20T00:28:04;101197.64;;;8.55;89.92
51147;BME280;37207;53.060;18.726;2023-04-20T00:30:31;101199.52;;;8.55;89.89
51147;BME280;37207;53.060;18.726;2023-04-20T00:32:57;101203.34;;;8.56;89.99
51147;BME280;37207;53.060;18.726;2023-04-20T00:35:24;101200.93;;;8.57;89.85
51147;BME280;37207;53.060;18.726;2023-04-20T00:37:51;101199.28;;;8.57;89.83
51147;BME280;37207;53.060;18.726;2023-04-20T00:40:17;101198.98;;;8.59;89.84
51147;BME280;37207;53.060;18.726;2023-04-20T00:42:44;101197.55;;;8.59;89.81
51147;BME280;37207;53.060;18.726;2023-04-20T00:45:11;101197.91;;;8.60;89.74
51147;BME280;37207;53.060;18.726;2023-04-20T00:47:37;101197.23;;;8.61;89.64
51147;BME280;37207;53.060;18.726;2023-04-20T00:50:05;101196.97;;;8.62;89.69
51147;BME280;37207;53.060;18.726;2023-04-20T00:52:33;101193.42;;;8.62;89.65
51147;BME280;37207;53.060;18.726;2023-04-20T00:55:00;101192.61;;;8.62;89.72
51147;BME280;37207;53.060;18.726;2023-04-20T00:57:29;101191.61;;;8.62;89.59
51147;BME280;37207;53.060;18.726;2023-04-20T00:59:56;101189.90;;;8.62;89.73
51147;BME280;37207;53.060;18.726;2023-04-20T01:02:23;101189.23;;;8.61;89.60
51147;BME280;37207;53.060;18.726;2023-04-20T01:04:49;101189.01;;;8.60;89.55
51147;BME280;37207;53.060;18.726;2023-04-20T01:07:16;101190.98;;;8.60;89.51
51147;BME280;37207;53.060;18.726;2023-04-20T01:09:42;101186.80;;;8.59;89.53
51147;BME280;37207;53.060;18.726;2023-04-20T01:12:09;101187.34;;;8.57;89.53
51147;BME280;37207;53.060;18.726;2023-04-20T01:14:37;101190.59;;;8.56;89.49
51147;BME280;37207;53.060;18.726;2023-04-20T01:17:03;101191.95;;;8.55;89.44
51147;BME280;37207;53.060;18.726;2023-04-20T01:19:31;101190.42;;;8.54;89.49
51147;BME280;37207;53.060;18.726;2023-04-20T01:22:01;101188.50;;;8.53;89.43
51147;BME280;37207;53.060;18.726;2023-04-20T01:24:27;101188.70;;;8.52;89.46
51147;BME280;37207;53.060;18.726;2023-04-20T01:26:54;101190.23;;;8.51;89.46
51147;BME280;37207;53.060;18.726;2023-04-20T01:29:21;101187.14;;;8.50;89.48
51147;BME280;37207;53.060;18.726;2023-04-20T01:31:48;101186.05;;;8.48;89.52
51147;BME280;37207;53.060;18.726;2023-04-20T01:34:14;101186.25;;;8.48;89.49
51147;BME280;37207;53.060;18.726;2023-04-20T01:36:43;101182.44;;;8.46;89.38
51147;BME280;37207;53.060;18.726;2023-04-20T01:39:11;101185.63;;;8.45;89.45
51147;BME280;37207;53.060;18.726;2023-04-20T01:41:38;101183.14;;;8.45;89.57
51147;BME280;37207;53.060;18.726;2023-04-20T01:44:04;101184.67;;;8.44;89.57
51147;BME280;37207;53.060;18.726;2023-04-20T01:46:31;101187.85;;;8.43;89.34
51147;BME280;37207;53.060;18.726;2023-04-20T01:48:57;101191.17;;;8.42;89.58
51147;BME280;37207;53.060;18.726;2023-04-20T01:51:24;101196.02;;;8.42;89.35
51147;BME280;37207;53.060;18.726;2023-04-20T01:53:51;101190.56;;;8.40;89.48
51147;BME280;37207;53.060;18.726;2023-04-20T01:56:17;101194.16;;;8.38;89.51
51147;BME280;37207;53.060;18.726;2023-04-20T01:58:44;101188.71;;;8.37;89.61
51147;BME280;37207;53.060;18.726;2023-04-20T02:01:10;101190.24;;;8.36;89.54
51147;BME280;37207;53.060;18.726;2023-04-20T02:03:37;101191.40;;;8.34;89.41
51147;BME280;37207;53.060;18.726;2023-04-20T02:06:04;101192.62;;;8.33;89.46
51147;BME280;37207;53.060;18.726;2023-04-20T02:08:32;101190.77;;;8.32;89.56
51147;BME280;37207;53.060;18.726;2023-04-20T02:10:59;101191.79;;;8.33;89.46
51147;BME280;37207;53.060;18.726;2023-04-20T02:13:26;101193.31;;;8.32;89.48
51147;BME280;37207;53.060;18.726;2023-04-20T02:15:53;101194.93;;;8.31;89.56
51147;BME280;37207;53.060;18.726;2023-04-20T02:18:22;101192.77;;;8.30;89.56
51147;BME280;37207;53.060;18.726;2023-04-20T02:20:49;101192.60;;;8.30;89.39
51147;BME280;37207;53.060;18.726;2023-04-20T02:23:16;101195.69;;;8.29;89.43
51147;BME280;37207;53.060;18.726;2023-04-20T02:25:43;101197.61;;;8.28;89.26
51147;BME280;37207;53.060;18.726;2023-04-20T02:28:11;101197.73;;;8.28;89.34
51147;BME280;37207;53.060;18.726;2023-04-20T02:30:38;101199.38;;;8.27;89.39
51147;BME280;37207;53.060;18.726;2023-04-20T02:33:04;101200.73;;;8.27;89.37
51147;BME280;37207;53.060;18.726;2023-04-20T02:35:31;101197.58;;;8.27;89.34
51147;BME280;37207;53.060;18.726;2023-04-20T02:37:57;101199.41;;;8.27;89.41
51147;BME280;37207;53.060;18.726;2023-04-20T02:40:24;101197.11;;;8.25;89.36
51147;BME280;37207;53.060;18.726;2023-04-20T02:42:51;101196.98;;;8.24;89.25
51147;BME280;37207;53.060;18.726;2023-04-20T02:45:18;101200.73;;;8.23;89.16
51147;BME280;37207;53.060;18.726;2023-04-20T02:47:45;101203.75;;;8.20;89.37
51147;BME280;37207;53.060;18.726;2023-04-20T02:50:13;101204.71;;;8.16;89.08
51147;BME280;37207;53.060;18.726;2023-04-20T02:53:00;101200.70;;;8.09;88.85
51147;BME280;37207;53.060;18.726;2023-04-20T02:55:27;101199.17;;;8.03;88.96
51147;BME280;37207;53.060;18.726;2023-04-20T02:57:55;101200.20;;;7.99;89.05
51147;BME280;37207;53.060;18.726;2023-04-20T03:00:23;101201.88;;;7.94;88.97
51147;BME280;37207;53.060;18.726;2023-04-20T03:02:58;101207.27;;;7.89;89.15
51147;BME280;37207;53.060;18.726;2023-04-20T03:05:25;101205.70;;;7.85;89.02
51147;BME280;37207;53.060;18.726;2023-04-20T03:07:52;101205.17;;;7.80;88.87
51147;BME280;37207;53.060;18.726;2023-04-20T03:10:18;101202.55;;;7.75;89.09
51147;BME280;37207;53.060;18.726;2023-04-20T03:12:59;101201.63;;;7.70;89.04
51147;BME280;37207;53.060;18.726;2023-04-20T03:15:46;101202.52;;;7.65;89.29
51147;BME280;37207;53.060;18.726;2023-04-20T03:18:28;101204.66;;;7.61;89.23
51147;BME280;37207;53.060;18.726;2023-04-20T03:20:55;101207.58;;;7.59;89.31
51147;BME280;37207;53.060;18.726;2023-04-20T03:23:21;101206.15;;;7.57;89.48
51147;BME280;37207;53.060;18.726;2023-04-20T03:25:49;101209.06;;;7.54;89.32
51147;BME280;37207;53.060;18.726;2023-04-20T03:28:45;101207.99;;;7.49;89.53
51147;BME280;37207;53.060;18.726;2023-04-20T03:31:13;101212.45;;;7.45;89.52
51147;BME280;37207;53.060;18.726;2023-04-20T03:33:40;101214.52;;;7.41;89.42
51147;BME280;37207;53.060;18.726;2023-04-20T03:36:07;101218.47;;;7.38;89.51
51147;BME280;37207;53.060;18.726;2023-04-20T03:38:36;101219.60;;;7.34;89.73
51147;BME280;37207;53.060;18.726;2023-04-20T03:41:02;101218.71;;;7.30;89.52
51147;BME280;37207;53.060;18.726;2023-04-20T03:43:30;101216.95;;;7.27;89.53
51147;BME280;37207;53.060;18.726;2023-04-20T03:45:56;101219.83;;;7.22;89.43
51147;BME280;37207;53.060;18.726;2023-04-20T03:48:23;101214.51;;;7.17;89.60
51147;BME280;37207;53.060;18.726;2023-04-20T03:50:49;101220.25;;;7.14;89.46
51147;BME280;37207;53.060;18.726;2023-04-20T03:53:16;101216.96;;;7.12;89.68
51147;BME280;37207;53.060;18.726;2023-04-20T03:55:43;101217.08;;;7.09;89.69
51147;BME280;37207;53.060;18.726;2023-04-20T03:58:12;101221.77;;;7.08;89.73
51147;BME280;37207;53.060;18.726;2023-04-20T04:00:48;101225.63;;;7.05;89.78
51147;BME280;37207;53.060;18.726;2023-04-20T04:03:14;101224.42;;;7.03;89.83
51147;BME280;37207;53.060;18.726;2023-04-20T04:05:41;101220.41;;;7.03;89.95
51147;BME280;37207;53.060;18.726;2023-04-20T04:08:08;101224.11;;;7.03;89.96
51147;BME280;37207;53.060;18.726;2023-04-20T04:10:34;101227.54;;;7.04;90.25
51147;BME280;37207;53.060;18.726;2023-04-20T04:13:01;101230.85;;;7.06;90.13
51147;BME280;37207;53.060;18.726;2023-04-20T04:15:28;101229.11;;;7.09;90.25
51147;BME280;37207;53.060;18.726;2023-04-20T04:18:01;101223.91;;;7.11;90.47
51147;BME280;37207;53.060;18.726;2023-04-20T04:20:27;101226.73;;;7.15;90.57
51147;BME280;37207;53.060;18.726;2023-04-20T04:22:54;101226.64;;;7.22;90.77
51147;BME280;37207;53.060;18.726;2023-04-20T04:25:36;101236.33;;;7.32;90.70
51147;BME280;37207;53.060;18.726;2023-04-20T04:28:02;101236.59;;;7.49;91.09
51147;BME280;37207;53.060;18.726;2023-04-20T04:30:30;101233.28;;;7.64;91.19
51147;BME280;37207;53.060;18.726;2023-04-20T04:32:57;101239.77;;;7.77;90.99
51147;BME280;37207;53.060;18.726;2023-04-20T04:35:25;101243.06;;;7.92;90.79
51147;BME280;37207;53.060;18.726;2023-04-20T04:37:52;101244.88;;;8.07;90.37
51147;BME280;37207;53.060;18.726;2023-04-20T04:40:19;101243.08;;;8.20;90.38
51147;BME280;37207;53.060;18.726;2023-04-20T04:42:47;101241.98;;;8.32;90.12
51147;BME280;37207;53.060;18.726;2023-04-20T04:45:14;101242.09;;;8.38;89.70
51147;BME280;37207;53.060;18.726;2023-04-20T04:47:41;101246.06;;;8.41;89.51
51147;BME280;37207;53.060;18.726;2023-04-20T04:50:08;101247.58;;;8.46;89.44
51147;BME280;37207;53.060;18.726;2023-04-20T04:52:36;101248.41;;;8.56;89.39
51147;BME280;37207;53.060;18.726;2023-04-20T04:55:02;101247.77;;;8.68;89.28
51147;BME280;37207;53.060;18.726;2023-04-20T04:57:33;101253.65;;;8.74;88.98
51147;BME280;37207;53.060;18.726;2023-04-20T05:00:00;101253.61;;;8.71;88.62
51147;BME280;37207;53.060;18.726;2023-04-20T05:02:27;101253.91;;;8.70;88.62
51147;BME280;37207;53.060;18.726;2023-04-20T05:04:53;101256.13;;;8.73;88.86
51147;BME280;37207;53.060;18.726;2023-04-20T05:07:20;101263.76;;;8.76;88.85
51147;BME280;37207;53.060;18.726;2023-04-20T05:09:46;101262.70;;;8.81;88.91
51147;BME280;37207;53.060;18.726;2023-04-20T05:12:13;101268.76;;;8.91;89.19
51147;BME280;37207;53.060;18.726;2023-04-20T05:14:39;101267.42;;;9.01;89.19
51147;BME280;37207;53.060;18.726;2023-04-20T05:17:06;101267.42;;;9.08;89.11
51147;BME280;37207;53.060;18.726;2023-04-20T05:19:33;101266.05;;;9.18;89.17
51147;BME280;37207;53.060;18.726;2023-04-20T05:21:59;101263.27;;;9.28;89.13
51147;BME280;37207;53.060;18.726;2023-04-20T05:24:26;101269.92;;;9.37;88.90
51147;BME280;37207;53.060;18.726;2023-04-20T05:26:52;101266.95;;;9.46;88.73
51147;BME280;37207;53.060;18.726;2023-04-20T05:29:19;101275.61;;;9.54;88.51
51147;BME280;37207;53.060;18.726;2023-04-20T05:31:45;101274.77;;;9.61;88.02
51147;BME280;37207;53.060;18.726;2023-04-20T05:34:12;101281.20;;;9.68;87.93
51147;BME280;37207;53.060;18.726;2023-04-20T05:36:39;101280.92;;;9.73;87.75
51147;BME280;37207;53.060;18.726;2023-04-20T05:39:06;101281.36;;;9.82;87.77
51147;BME280;37207;53.060;18.726;2023-04-20T05:41:33;101282.58;;;9.94;87.82
51147;BME280;37207;53.060;18.726;2023-04-20T05:43:59;101281.48;;;10.06;87.53
51147;BME280;37207;53.060;18.726;2023-04-20T05:46:26;101282.00;;;10.14;86.84
51147;BME280;37207;53.060;18.726;2023-04-20T05:48:54;101283.30;;;10.22;86.79
51147;BME280;37207;53.060;18.726;2023-04-20T05:51:21;101285.55;;;10.24;86.46
51147;BME280;37207;53.060;18.726;2023-04-20T05:53:47;101287.24;;;10.21;85.78
51147;BME280;37207;53.060;18.726;2023-04-20T05:56:14;101289.56;;;10.17;85.46
51147;BME280;37207;53.060;18.726;2023-04-20T05:58:40;101288.61;;;10.18;85.36
51147;BME280;37207;53.060;18.726;2023-04-20T06:01:07;101288.06;;;10.23;85.26
51147;BME280;37207;53.060;18.726;2023-04-20T06:03:33;101289.06;;;10.33;85.42
51147;BME280;37207;53.060;18.726;2023-04-20T06:06:00;101290.35;;;10.44;85.42
51147;BME280;37207;53.060;18.726;2023-04-20T06:08:27;101292.22;;;10.53;85.54
51147;BME280;37207;53.060;18.726;2023-04-20T06:10:54;101290.73;;;10.61;85.19
51147;BME280;37207;53.060;18.726;2023-04-20T06:13:24;101293.99;;;10.65;84.64
51147;BME280;37207;53.060;18.726;2023-04-20T06:15:51;101295.91;;;10.73;84.97
51147;BME280;37207;53.060;18.726;2023-04-20T06:18:19;101304.04;;;10.89;85.31
51147;BME280;37207;53.060;18.726;2023-04-20T06:20:46;101299.42;;;11.09;85.19
51147;BME280;37207;53.060;18.726;2023-04-20T06:23:12;101300.65;;;11.25;84.69
51147;BME280;37207;53.060;18.726;2023-04-20T06:25:39;101301.38;;;11.32;83.39
51147;BME280;37207;53.060;18.726;2023-04-20T06:28:07;101303.83;;;11.35;83.44
51147;BME280;37207;53.060;18.726;2023-04-20T06:30:33;101304.29;;;11.39;83.55
51147;BME280;37207;53.060;18.726;2023-04-20T06:33:01;101304.90;;;11.42;83.64
51147;BME280;37207;53.060;18.726;2023-04-20T06:35:28;101307.05;;;11.44;83.38
51147;BME280;37207;53.060;18.726;2023-04-20T06:37:54;101311.88;;;11.44;83.30
51147;BME280;37207;53.060;18.726;2023-04-20T06:40:25;101315.46;;;11.45;83.13
51147;BME280;37207;53.060;18.726;2023-04-20T06:42:52;101319.11;;;11.43;82.81
51147;BME280;37207;53.060;18.726;2023-04-20T06:45:19;101316.53;;;11.42;82.61
51147;BME280;37207;53.060;18.726;2023-04-20T06:47:45;101319.46;;;11.40;82.42
51147;BME280;37207;53.060;18.726;2023-04-20T06:50:12;101321.60;;;11.39;82.12
51147;BME280;37207;53.060;18.726;2023-04-20T06:52:39;101322.55;;;11.39;82.08
51147;BME280;37207;53.060;18.726;2023-04-20T06:55:06;101327.27;;;11.38;81.54
51147;BME280;37207;53.060;18.726;2023-04-20T06:57:33;101326.89;;;11.37;81.69
51147;BME280;37207;53.060;18.726;2023-04-20T07:00:00;101325.73;;;11.37;81.46
51147;BME280;37207;53.060;18.726;2023-04-20T07:02:27;101325.98;;;11.39;81.51
51147;BME280;37207;53.060;18.726;2023-04-20T07:04:59;101328.56;;;11.43;81.35
51147;BME280;37207;53.060;18.726;2023-04-20T07:07:26;101326.58;;;11.47;81.26
51147;BME280;37207;53.060;18.726;2023-04-20T07:09:53;101335.30;;;11.55;81.17
51147;BME280;37207;53.060;18.726;2023-04-20T07:12:19;101330.01;;;11.64;81.20
51147;BME280;37207;53.060;18.726;2023-04-20T07:14:46;101326.31;;;11.71;81.08
51147;BME280;37207;53.060;18.726;2023-04-20T07:17:12;101330.91;;;11.76;80.91
51147;BME280;37207;53.060;18.726;2023-04-20T07:19:39;101330.44;;;11.77;80.58
51147;BME280;37207;53.060;18.726;2023-04-20T07:22:05;101323.80;;;11.77;80.26
51147;BME280;37207;53.060;18.726;2023-04-20T07:24:32;101325.49;;;11.79;80.31
51147;BME280;37207;53.060;18.726;2023-04-20T07:26:58;101328.44;;;11.82;80.04
51147;BME280;37207;53.060;18.726;2023-04-20T07:29:25;101331.52;;;11.85;80.05
51147;BME280;37207;53.060;18.726;2023-04-20T07:31:51;101338.65;;;11.86;79.87
51147;BME280;37207;53.060;18.726;2023-04-20T07:34:18;101339.78;;;11.88;79.43
51147;BME280;37207;53.060;18.726;2023-04-20T07:36:45;101343.34;;;11.89;79.22
51147;BME280;37207;53.060;18.726;2023-04-20T07:39:11;101347.61;;;11.95;79.20
51147;BME280;37207;53.060;18.726;2023-04-20T07:41:38;101351.55;;;12.04;79.39
51147;BME280;37207;53.060;18.726;2023-04-20T07:44:04;101357.21;;;12.15;78.98
51147;BME280;37207;53.060;18.726;2023-04-20T07:46:31;101354.55;;;12.28;78.50
51147;BME280;37207;53.060;18.726;2023-04-20T07:48:57;101358.29;;;12.44;78.13
51147;BME280;37207;53.060;18.726;2023-04-20T07:51:24;101359.98;;;12.68;78.30
51147;BME280;37207;53.060;18.726;2023-04-20T07:53:51;101354.39;;;13.05;77.97
51147;BME280;37207;53.060;18.726;2023-04-20T07:56:18;101352.02;;;13.50;78.35
51147;BME280;37207;53.060;18.726;2023-04-20T07:58:44;101351.30;;;13.83;77.15
51147;BME280;37207;53.060;18.726;2023-04-20T08:01:11;101352.83;;;14.15;76.64
51147;BME280;37207;53.060;18.726;2023-04-20T08:03:38;101356.27;;;14.54;76.01
51147;BME280;37207;53.060;18.726;2023-04-20T08:06:04;101357.24;;;14.86;75.34
51147;BME280;37207;53.060;18.726;2023-04-20T08:08:31;101353.95;;;15.13;74.27
51147;BME280;37207;53.060;18.726;2023-04-20T08:10:58;101354.89;;;15.35;74.23
51147;BME280;37207;53.060;18.726;2023-04-20T08:13:24;101360.66;;;15.60;73.54
51147;BME280;37207;53.060;18.726;2023-04-20T08:15:52;101362.39;;;15.83;73.35
51147;BME280;37207;53.060;18.726;2023-04-20T08:18:19;101365.11;;;16.08;72.91
51147;BME280;37207;53.060;18.726;2023-04-20T08:20:46;101361.41;;;16.30;71.64
51147;BME280;37207;53.060;18.726;2023-04-20T08:23:13;101359.73;;;16.41;71.38
51147;BME280;37207;53.060;18.726;2023-04-20T08:25:39;101361.09;;;16.61;70.52
51147;BME280;37207;53.060;18.726;2023-04-20T08:28:06;101363.11;;;16.78;70.03
51147;BME280;37207;53.060;18.726;2023-04-20T08:30:33;101364.19;;;16.95;70.32
51147;BME280;37207;53.060;18.726;2023-04-20T08:32:59;101366.48;;;17.09;69.21
51147;BME280;37207;53.060;18.726;2023-04-20T08:35:26;101364.20;;;17.17;67.61
51147;BME280;37207;53.060;18.726;2023-04-20T08:37:52;101363.77;;;17.26;68.34
51147;BME280;37207;53.060;18.726;2023-04-20T08:40:19;101363.84;;;17.45;68.64
51147;BME280;37207;53.060;18.726;2023-04-20T08:42:46;101358.56;;;17.66;68.39
51147;BME280;37207;53.060;18.726;2023-04-20T08:45:12;101363.84;;;17.85;66.61
51147;BME280;37207;53.060;18.726;2023-04-20T08:47:39;101365.34;;;17.81;63.72
51147;BME280;37207;53.060;18.726;2023-04-20T08:50:07;101362.08;;;17.74;65.68
51147;BME280;37207;53.060;18.726;2023-04-20T08:52:35;101362.77;;;17.80;66.21
51147;BME280;37207;53.060;18.726;2023-04-20T08:55:05;101364.36;;;17.90;65.95
51147;BME280;37207;53.060;18.726;2023-04-20T08:57:31;101359.20;;;17.86;64.64
51147;BME280;37207;53.060;18.726;2023-04-20T08:59:58;101360.29;;;17.84;65.24
51147;BME280;37207;53.060;18.726;2023-04-20T09:02:25;101360.77;;;17.97;65.52
51147;BME280;37207;53.060;18.726;2023-04-20T09:05:02;101354.72;;;18.02;65.61
51147;BME280;37207;53.060;18.726;2023-04-20T09:07:30;101352.93;;;17.99;65.11
51147;BME280;37207;53.060;18.726;2023-04-20T09:09:58;101357.38;;;18.07;65.23
51147;BME280;37207;53.060;18.726;2023-04-20T09:12:26;101353.58;;;18.21;65.12
51147;BME280;37207;53.060;18.726;2023-04-20T09:14:54;101351.39;;;18.42;65.04
51147;BME280;37207;53.060;18.726;2023-04-20T09:17:32;101349.86;;;18.72;64.31
51147;BME280;37207;53.060;18.726;2023-04-20T09:19:59;101349.52;;;18.98;64.69
51147;BME280;37207;53.060;18.726;2023-04-20T09:22:34;101355.52;;;19.20;63.61
51147;BME280;37207;53.060;18.726;2023-04-20T09:25:17;101350.91;;;19.43;64.68
51147;BME280;37207;53.060;18.726;2023-04-20T09:27:58;101357.35;;;19.49;63.46
51147;BME280;37207;53.060;18.726;2023-04-20T09:30:39;101364.78;;;19.44;62.21
51147;BME280;37207;53.060;18.726;2023-04-20T09:33:07;101361.38;;;19.37;61.82
51147;BME280;37207;53.060;18.726;2023-04-20T09:35:33;101365.48;;;19.23;61.58
51147;BME280;37207;53.060;18.726;2023-04-20T09:38:01;101367.79;;;19.12;61.32
51147;BME280;37207;53.060;18.726;2023-04-20T09:40:28;101363.94;;;18.98;61.01
51147;BME280;37207;53.060;18.726;2023-04-20T09:42:58;101365.67;;;18.78;60.81
51147;BME280;37207;53.060;18.726;2023-04-20T09:45:27;101365.26;;;18.56;60.96
51147;BME280;37207;53.060;18.726;2023-04-20T09:47:54;101367.84;;;18.35;60.66
51147;BME280;37207;53.060;18.726;2023-04-20T09:50:21;101367.04;;;18.14;60.41
51147;BME280;37207;53.060;18.726;2023-04-20T09:52:48;101370.27;;;17.91;60.42
51147;BME280;37207;53.060;18.726;2023-04-20T09:55:15;101366.54;;;17.77;61.21
51147;BME280;37207;53.060;18.726;2023-04-20T09:57:43;101361.00;;;17.76;61.54
51147;BME280;37207;53.060;18.726;2023-04-20T10:00:10;101357.76;;;18.04;61.86
51147;BME280;37207;53.060;18.726;2023-04-20T10:02:37;101355.15;;;18.43;62.23
51147;BME280;37207;53.060;18.726;2023-04-20T10:05:06;101353.25;;;18.84;62.30
51147;BME280;37207;53.060;18.726;2023-04-20T10:07:33;101351.02;;;19.26;61.97
51147;BME280;37207;53.060;18.726;2023-04-20T10:12:30;101349.34;;;20.18;60.83
51147;BME280;37207;53.060;18.726;2023-04-20T10:14:57;101349.38;;;20.70;60.69
51147;BME280;37207;53.060;18.726;2023-04-20T10:17:30;101347.48;;;21.30;60.14
51147;BME280;37207;53.060;18.726;2023-04-20T10:19:57;101344.48;;;22.06;58.68
51147;BME280;37207;53.060;18.726;2023-04-20T10:22:29;101342.19;;;23.06;57.48
51147;BME280;37207;53.060;18.726;2023-04-20T10:25:14;101338.36;;;24.20;54.62
51147;BME280;37207;53.060;18.726;2023-04-20T10:30:19;101334.42;;;26.41;51.38
51147;BME280;37207;53.060;18.726;2023-04-20T10:32:46;101327.30;;;27.31;48.65
51147;BME280;37207;53.060;18.726;2023-04-20T10:35:13;101323.95;;;27.63;47.42
51147;BME280;37207;53.060;18.726;2023-04-20T10:37:51;101325.90;;;27.72;46.61
51147;BME280;37207;53.060;18.726;2023-04-20T10:40:26;101319.88;;;28.34;44.52
51147;BME280;37207;53.060;18.726;2023-04-20T10:42:53;101321.39;;;28.26;42.77
51147;BME280;37207;53.060;18.726;2023-04-20T10:45:19;101321.98;;;27.36;41.67
51147;BME280;37207;53.060;18.726;2023-04-20T10:47:47;101322.08;;;26.14;41.67
51147;BME280;37207;53.060;18.726;2023-04-20T10:50:15;101318.17;;;25.65;41.96
51147;BME280;37207;53.060;18.726;2023-04-20T10:52:43;101313.63;;;25.60;42.06
51147;BME280;37207;53.060;18.726;2023-04-20T10:55:24;101314.73;;;25.51;40.99
51147;BME280;37207;53.060;18.726;2023-04-20T10:57:51;101312.15;;;25.30;42.44
51147;BME280;37207;53.060;18.726;2023-04-20T11:00:23;101312.02;;;25.11;42.07
51147;BME280;37207;53.060;18.726;2023-04-20T11:02:52;101306.58;;;24.84;42.10
51147;BME280;37207;53.060;18.726;2023-04-20T11:05:20;101303.05;;;24.96;42.64
51147;BME280;37207;53.060;18.726;2023-04-20T11:07:58;101297.34;;;25.29;42.21
51147;BME280;37207;53.060;18.726;2023-04-20T11:10:38;101304.30;;;25.26;43.19
51147;BME280;37207;53.060;18.726;2023-04-20T11:13:05;101299.66;;;25.31;43.48
51147;BME280;37207;53.060;18.726;2023-04-20T11:15:33;101304.57;;;24.94;44.35
51147;BME280;37207;53.060;18.726;2023-04-20T11:18:10;101306.16;;;25.15;44.28
51147;BME280;37207;53.060;18.726;2023-04-20T11:20:51;101308.65;;;25.30;42.18
51147;BME280;37207;53.060;18.726;2023-04-20T11:23:19;101308.05;;;25.28;41.73
51147;BME280;37207;53.060;18.726;2023-04-20T11:25:55;101305.20;;;25.26;40.73
51147;BME280;37207;53.060;18.726;2023-04-20T11:28:22;101302.31;;;25.04;40.14
51147;BME280;37207;53.060;18.726;2023-04-20T11:30:49;101302.34;;;24.76;40.78
51147;BME280;37207;53.060;18.726;2023-04-20T11:33:30;101298.88;;;24.33;41.60
51147;BME280;37207;53.060;18.726;2023-04-20T11:35:57;101299.59;;;24.00;41.53
51147;BME280;37207;53.060;18.726;2023-04-20T11:38:32;101301.25;;;23.74;41.70
51147;BME280;37207;53.060;18.726;2023-04-20T11:40:59;101296.04;;;23.40;40.65
51147;BME280;37207;53.060;18.726;2023-04-20T11:43:30;101294.72;;;23.38;40.99
51147;BME280;37207;53.060;18.726;2023-04-20T11:45:58;101289.70;;;23.46;40.31
51147;BME280;37207;53.060;18.726;2023-04-20T11:48:26;101283.27;;;23.44;40.64
51147;BME280;37207;53.060;18.726;2023-04-20T11:50:57;101281.20;;;23.44;40.22
51147;BME280;37207;53.060;18.726;2023-04-20T11:53:24;101276.69;;;23.46;40.47
51147;BME280;37207;53.060;18.726;2023-04-20T11:55:50;101280.63;;;23.60;40.11
51147;BME280;37207;53.060;18.726;2023-04-20T11:58:17;101281.32;;;23.70;40.38
51147;BME280;37207;53.060;18.726;2023-04-20T12:00:43;101281.21;;;23.86;39.71
51147;BME280;37207;53.060;18.726;2023-04-20T12:03:10;101272.88;;;24.05;39.37
51147;BME280;37207;53.060;18.726;2023-04-20T12:05:36;101277.12;;;24.06;38.89
51147;BME280;37207;53.060;18.726;2023-04-20T12:08:03;101276.63;;;23.82;38.82
51147;BME280;37207;53.060;18.726;2023-04-20T12:10:30;101278.17;;;23.58;39.50
51147;BME280;37207;53.060;18.726;2023-04-20T12:12:56;101283.35;;;23.22;38.18
51147;BME280;37207;53.060;18.726;2023-04-20T12:15:25;101285.11;;;22.61;38.31
51147;BME280;37207;53.060;18.726;2023-04-20T12:17:52;101281.13;;;21.97;38.40
51147;BME280;37207;53.060;18.726;2023-04-20T12:20:18;101286.27;;;21.38;39.32
51147;BME280;37207;53.060;18.726;2023-04-20T12:22:45;101285.67;;;21.01;41.59
51147;BME280;37207;53.060;18.726;2023-04-20T12:25:11;101283.08;;;20.89;42.63
51147;BME280;37207;53.060;18.726;2023-04-20T12:27:39;101280.25;;;20.96;43.20
51147;BME280;37207;53.060;18.726;2023-04-20T12:30:06;101282.62;;;21.57;42.57
51147;BME280;37207;53.060;18.726;2023-04-20T12:32:34;101276.39;;;22.07;42.53
51147;BME280;37207;53.060;18.726;2023-04-20T12:35:01;101269.94;;;22.74;43.35
51147;BME280;37207;53.060;18.726;2023-04-20T12:37:28;101268.63;;;23.24;42.04
51147;BME280;37207;53.060;18.726;2023-04-20T12:39:54;101264.74;;;23.28;40.43
51147;BME280;37207;53.060;18.726;2023-04-20T12:42:21;101262.08;;;22.99;41.05
51147;BME280;37207;53.060;18.726;2023-04-20T12:44:47;101258.52;;;22.60;41.00
51147;BME280;37207;53.060;18.726;2023-04-20T12:47:16;101258.38;;;22.14;40.29
51147;BME280;37207;53.060;18.726;2023-04-20T12:49:43;101255.45;;;21.69;41.13
51147;BME280;37207;53.060;18.726;2023-04-20T12:52:09;101246.84;;;21.70;41.15
51147;BME280;37207;53.060;18.726;2023-04-20T12:54:36;101252.16;;;22.22;39.51